createdAt,value
2019-04-22T00:02:13.819Z,19.70
2019-04-22T00:04:56.288Z,19.70
2019-04-22T00:07:43.256Z,19.70
2019-04-22T00:10:16.228Z,19.60
2019-04-22T00:12:48.627Z,19.60
2019-04-22T00:15:10.105Z,19.60
2019-04-22T00:17:55.161Z,19.50
2019-04-22T00:20:14.452Z,19.60
2019-04-22T00:22:44.354Z,19.50
2019-04-22T00:25:26.645Z,19.50
2019-04-22T00:27:59.096Z,19.50
2019-04-22T00:30:22.526Z,19.50
2019-04-22T00:33:00.697Z,19.40
2019-04-22T00:35:27.545Z,19.40
2019-04-22T00:38:09.245Z,19.40
2019-04-22T00:40:34.126Z,19.40
2019-04-22T00:43:05.035Z,19.40
2019-04-22T00:45:40.179Z,19.30
2019-04-22T00:48:09.270Z,19.30
2019-04-22T00:50:37.467Z,19.30
2019-04-22T00:53:11.628Z,19.30
2019-04-22T00:56:00.647Z,19.30
2019-04-22T00:58:30.773Z,19.30
2019-04-22T01:01:01.874Z,19.20
2019-04-22T01:03:34.257Z,19.20
2019-04-22T01:06:02.945Z,19.10
2019-04-22T01:08:43.215Z,19.20
2019-04-22T01:11:11.284Z,19.10
2019-04-22T01:13:42.085Z,19.10
2019-04-22T01:16:13.995Z,19.10
2019-04-22T01:18:46.197Z,19.10
2019-04-22T01:23:40.733Z,19.10
2019-04-22T01:26:13.966Z,19.10
2019-04-22T01:28:39.893Z,19.10
2019-04-22T01:31:04.701Z,19.00
2019-04-22T01:33:36.624Z,19.10
2019-04-22T01:36:22.886Z,19.10
2019-04-22T01:38:58.451Z,19.00
2019-04-22T01:41:37.566Z,19.00
2019-04-22T01:44:10.556Z,19.00
2019-04-22T01:46:31.805Z,19.00
2019-04-22T01:48:59.808Z,19.00
2019-04-22T01:51:47.157Z,18.90
2019-04-22T01:58:59.241Z,18.90
2019-04-22T02:01:47.699Z,18.90
2019-04-22T02:04:11.407Z,18.90
2019-04-22T02:06:43.092Z,18.80
2019-04-22T02:09:17.745Z,18.80
2019-04-22T02:11:47.008Z,18.80
2019-04-22T02:14:20.676Z,18.80
2019-04-22T02:16:41.299Z,18.80
2019-04-22T02:19:22.886Z,18.80
2019-04-22T02:21:48.563Z,18.80
2019-04-22T02:24:21.429Z,18.80
2019-04-22T02:26:49.906Z,18.80
2019-04-22T02:29:21.934Z,18.80
2019-04-22T02:31:59.497Z,18.80
2019-04-22T02:36:56.275Z,18.80
2019-04-22T02:39:24.400Z,18.70
2019-04-22T02:42:09.425Z,18.70
2019-04-22T02:44:46.719Z,18.70
2019-04-22T02:52:10.009Z,18.70
2019-04-22T02:55:00.312Z,18.70
2019-04-22T02:57:19.357Z,18.70
2019-04-22T02:59:39.829Z,18.70
2019-04-22T03:02:12.205Z,18.60
2019-04-22T03:04:43.773Z,18.60
2019-04-22T03:07:09.100Z,18.60
2019-04-22T03:09:57.780Z,18.60
2019-04-22T03:12:21.554Z,18.60
2019-04-22T03:17:18.678Z,18.60
2019-04-22T03:19:58.780Z,18.60
2019-04-22T03:25:06.151Z,18.50
2019-04-22T03:27:27.704Z,18.60
2019-04-22T03:37:52.953Z,18.50
2019-04-22T03:40:25.193Z,18.50
2019-04-22T03:48:04.381Z,18.50
2019-04-22T03:50:25.637Z,18.50
2019-04-22T03:53:14.868Z,18.50
2019-04-22T03:55:38.442Z,18.50
2019-04-22T04:03:09.807Z,18.40
2019-04-22T04:05:47.879Z,18.40
2019-04-22T04:08:14.847Z,18.40
2019-04-22T04:13:20.554Z,18.40
2019-04-22T04:15:34.261Z,18.40
2019-04-22T04:18:11.424Z,18.40
2019-04-22T04:21:09.266Z,18.40
2019-04-22T04:23:31.422Z,18.30
2019-04-22T04:25:48.416Z,18.40
2019-04-22T04:30:48.598Z,18.20
2019-04-22T04:33:22.987Z,18.30
2019-04-22T04:35:54.571Z,18.40
2019-04-22T04:38:21.110Z,18.40
2019-04-22T04:43:35.043Z,18.50
2019-04-22T04:48:47.120Z,18.40
2019-04-22T04:53:28.800Z,18.50
2019-04-22T04:56:11.460Z,18.50
2019-04-22T04:58:47.007Z,18.50
2019-04-22T05:01:20.997Z,18.50
2019-04-22T05:06:13.138Z,18.50
2019-04-22T05:11:16.781Z,18.50
2019-04-22T05:16:27.031Z,18.50
2019-04-22T05:23:45.055Z,18.50
2019-04-22T05:26:20.520Z,18.50
2019-04-22T05:28:52.140Z,18.50
2019-04-22T05:33:51.055Z,18.60
2019-04-22T05:36:26.382Z,18.60
2019-04-22T05:38:53.486Z,18.60
2019-04-22T05:41:26.626Z,18.60
2019-04-22T05:43:58.551Z,18.60
2019-04-22T05:46:26.576Z,18.70
2019-04-22T05:49:13.233Z,18.70
2019-04-22T05:51:32.549Z,18.70
2019-04-22T05:54:02.814Z,18.80
2019-04-22T05:56:33.892Z,18.80
2019-04-22T06:01:45.648Z,18.80
2019-04-22T06:04:05.380Z,18.80
2019-04-22T06:06:35.373Z,18.90
2019-04-22T06:09:12.623Z,18.90
2019-04-22T06:11:46.740Z,18.90
2019-04-22T06:14:07.640Z,19.00
2019-04-22T06:16:45.721Z,19.00
2019-04-22T06:19:21.594Z,19.00
2019-04-22T06:21:50.202Z,19.00
2019-04-22T06:24:26.416Z,19.10
2019-04-22T06:29:20.984Z,19.20
2019-04-22T06:32:12.798Z,19.20
2019-04-22T06:34:26.550Z,19.20
2019-04-22T06:37:05.671Z,19.30
2019-04-22T06:42:01.012Z,19.40
2019-04-22T06:44:29.617Z,19.40
2019-04-22T06:47:11.809Z,19.50
2019-04-22T06:49:38.363Z,19.50
2019-04-22T06:52:12.893Z,19.50
2019-04-22T06:57:06.075Z,19.50
2019-04-22T06:59:37.696Z,19.60
2019-04-22T07:02:12.371Z,19.60
2019-04-22T07:04:41.868Z,19.60
2019-04-22T07:07:12.218Z,19.60
2019-04-22T07:12:21.157Z,19.60
2019-04-22T07:14:48.675Z,19.70
2019-04-22T07:17:14.938Z,19.70
2019-04-22T07:19:42.229Z,19.80
2019-04-22T07:24:55.289Z,19.90
2019-04-22T07:27:22.140Z,20.00
2019-04-22T07:32:49.741Z,20.10
2019-04-22T07:35:01.116Z,20.10
2019-04-22T07:37:36.812Z,20.20
2019-04-22T07:39:56.909Z,20.20
2019-04-22T07:42:34.046Z,20.20
2019-04-22T07:45:05.041Z,20.20
2019-04-22T07:47:52.442Z,20.20
2019-04-22T07:50:37.829Z,20.20
2019-04-22T07:52:51.817Z,20.30
2019-04-22T07:55:17.833Z,20.40
2019-04-22T07:58:00.658Z,20.50
2019-04-22T08:00:29.728Z,20.60
2019-04-22T08:03:07.712Z,20.60
2019-04-22T08:08:14.702Z,20.60
2019-04-22T08:10:43.311Z,20.70
2019-04-22T08:13:11.359Z,20.70
2019-04-22T08:18:28.955Z,20.80
2019-04-22T08:21:03.167Z,20.80
2019-04-22T08:23:16.627Z,20.90
2019-04-22T08:25:47.438Z,20.90
2019-04-22T08:28:24.039Z,20.90
2019-04-22T08:33:21.708Z,20.90
2019-04-22T08:36:06.831Z,21.00
2019-04-22T08:38:33.645Z,21.00
2019-04-22T08:41:24.598Z,21.00
2019-04-22T08:43:56.522Z,21.00
2019-04-22T08:46:23.379Z,21.00
2019-04-22T08:48:51.671Z,21.10
2019-04-22T08:51:22.252Z,21.00
2019-04-22T08:53:59.808Z,21.00
2019-04-22T08:56:29.560Z,21.00
2019-04-22T08:58:59.991Z,21.10
2019-04-22T09:03:58.023Z,21.00
2019-04-22T09:09:02.111Z,21.10
2019-04-22T09:11:38.431Z,21.10
2019-04-22T09:14:02.959Z,21.10
2019-04-22T09:18:59.788Z,21.10
2019-04-22T09:21:36.182Z,21.10
2019-04-22T09:24:05.359Z,21.10
2019-04-22T09:26:36.063Z,21.10
2019-04-22T09:31:37.248Z,21.30
2019-04-22T09:34:06.476Z,21.30
2019-04-22T09:36:42.130Z,21.40
2019-04-22T09:39:19.512Z,21.40
2019-04-22T09:41:48.360Z,21.40
2019-04-22T09:44:08.135Z,21.40
2019-04-22T09:46:47.189Z,21.40
2019-04-22T09:49:19.619Z,21.40
2019-04-22T09:51:46.184Z,21.30
2019-04-22T09:54:21.658Z,21.40
2019-04-22T09:56:49.031Z,21.40
2019-04-22T09:59:20.551Z,21.50
2019-04-22T10:02:07.786Z,21.40
2019-04-22T10:04:18.785Z,21.40
2019-04-22T10:06:44.329Z,21.50
2019-04-22T10:11:56.414Z,21.40
2019-04-22T10:14:33.787Z,21.50
2019-04-22T10:17:04.703Z,21.50
2019-04-22T10:19:30.042Z,21.50
2019-04-22T10:22:04.536Z,21.50
2019-04-22T10:24:33.047Z,21.50
2019-04-22T10:27:01.740Z,21.50
2019-04-22T10:29:41.662Z,21.50
2019-04-22T10:32:06.692Z,21.50
2019-04-22T10:34:26.987Z,21.40
2019-04-22T10:36:50.977Z,21.40
2019-04-22T10:39:18.308Z,21.40
2019-04-22T10:41:48.670Z,21.40
2019-04-22T10:44:19.164Z,21.40
2019-04-22T10:46:49.777Z,21.40
2019-04-22T10:49:20.295Z,21.50
2019-04-22T10:51:51.047Z,21.50
2019-04-22T10:54:20.642Z,21.50
2019-04-22T10:56:50.831Z,21.40
2019-04-22T10:59:20.692Z,21.40
2019-04-22T11:01:50.631Z,21.50
2019-04-22T11:04:21.524Z,21.40
2019-04-22T11:06:56.370Z,21.50
2019-04-22T11:09:23.885Z,21.50
2019-04-22T11:12:01.683Z,21.60
2019-04-22T11:14:24.574Z,21.50
2019-04-22T11:16:55.305Z,21.60
2019-04-22T11:19:25.703Z,21.50
2019-04-22T11:22:05.043Z,21.70
2019-04-22T11:24:46.645Z,21.50
2019-04-22T11:27:16.956Z,21.50
2019-04-22T11:29:47.682Z,21.50
2019-04-22T11:32:18.180Z,21.50
2019-04-22T11:34:49.016Z,21.60
2019-04-22T11:37:20.693Z,21.60
2019-04-22T11:40:02.135Z,21.60
2019-04-22T11:42:22.259Z,21.70
2019-04-22T11:44:53.068Z,21.50
2019-04-22T11:47:23.387Z,21.50
2019-04-22T11:49:54.358Z,21.60
2019-04-22T11:52:24.683Z,21.60
2019-04-22T11:54:54.868Z,21.60
2019-04-22T11:57:25.331Z,21.70
2019-04-22T11:59:56.596Z,21.60
2019-04-22T12:02:29.168Z,21.60
2019-04-22T12:04:58.804Z,21.50
2019-04-22T12:07:31.753Z,21.50
2019-04-22T12:10:13.262Z,21.60
2019-04-22T12:12:31.998Z,21.50
2019-04-22T12:15:20.928Z,21.60
2019-04-22T12:17:50.998Z,21.60
2019-04-22T12:20:21.764Z,21.50
2019-04-22T12:22:53.303Z,21.60
2019-04-22T12:25:34.739Z,21.60
2019-04-22T12:27:55.207Z,21.50
2019-04-22T12:30:25.601Z,21.50
2019-04-22T12:32:55.282Z,21.40
2019-04-22T12:35:26.251Z,21.50
2019-04-22T12:38:01.463Z,21.50
2019-04-22T12:40:39.447Z,21.50
2019-04-22T12:42:59.472Z,21.50
2019-04-22T12:45:30.058Z,21.50
2019-04-22T12:48:00.108Z,21.60
2019-04-22T12:50:33.727Z,21.60
2019-04-22T12:53:06.502Z,21.50
2019-04-22T12:55:32.370Z,21.60
2019-04-22T12:58:02.817Z,21.60
2019-04-22T13:00:34.328Z,21.50
2019-04-22T13:03:05.117Z,21.60
2019-04-22T13:05:35.307Z,21.60
2019-04-22T13:08:05.658Z,21.60
2019-04-22T13:10:47.283Z,21.60
2019-04-22T13:13:07.117Z,21.60
2019-04-22T13:15:37.021Z,21.60
2019-04-22T13:18:17.325Z,21.60
2019-04-22T13:20:38.645Z,21.50
2019-04-22T13:23:09.404Z,21.60
2019-04-22T13:25:39.082Z,21.50
2019-04-22T13:28:09.346Z,21.50
2019-04-22T13:30:38.876Z,21.60
2019-04-22T13:33:08.327Z,21.60
2019-04-22T13:35:37.720Z,21.50
2019-04-22T13:38:08.948Z,21.50
2019-04-22T13:40:39.116Z,21.50
2019-04-22T13:43:09.348Z,21.60
2019-04-22T13:45:40.630Z,21.60
2019-04-22T13:48:29.577Z,21.50
2019-04-22T13:51:33.955Z,21.50
2019-04-22T13:54:29.538Z,21.50
2019-04-22T13:56:28.373Z,21.40
2019-04-22T13:58:48.426Z,21.50
2019-04-22T14:01:07.184Z,21.50
2019-04-22T14:03:56.629Z,21.60
2019-04-22T14:06:26.918Z,21.50
2019-04-22T14:08:56.423Z,21.50
2019-04-22T14:11:34.796Z,21.50
2019-04-22T14:13:56.974Z,21.60
2019-04-22T14:16:27.003Z,21.60
2019-04-22T14:18:58.110Z,21.50
2019-04-22T14:21:27.832Z,21.60
2019-04-22T14:23:58.517Z,21.50
2019-04-22T14:26:42.432Z,21.60
2019-04-22T14:28:59.947Z,21.60
2019-04-22T14:31:30.747Z,21.60
2019-04-22T14:34:04.981Z,21.60
2019-04-22T14:36:33.037Z,21.60
2019-04-22T14:39:05.985Z,21.60
2019-04-22T14:41:46.388Z,21.60
2019-04-22T14:47:09.249Z,21.60
2019-04-22T14:49:35.475Z,21.60
2019-04-22T14:52:07.997Z,21.50
2019-04-22T14:54:28.336Z,21.50
2019-04-22T14:56:42.408Z,21.50
2019-04-22T14:59:13.279Z,21.50
2019-04-22T15:01:43.505Z,21.60
2019-04-22T15:04:13.394Z,21.60
2019-04-22T15:06:47.014Z,21.60
2019-04-22T15:09:16.242Z,21.60
2019-04-22T15:11:55.794Z,21.60
2019-04-22T15:14:17.231Z,21.60
2019-04-22T15:17:06.908Z,21.60
2019-04-22T15:19:38.161Z,21.50
2019-04-22T15:22:08.488Z,21.50
2019-04-22T15:24:38.776Z,21.50
2019-04-22T15:27:08.737Z,21.50
2019-04-22T15:29:39.056Z,21.50
2019-04-22T15:32:29.363Z,21.50
2019-04-22T15:34:59.589Z,21.60
2019-04-22T15:37:31.098Z,21.60
2019-04-22T15:40:00.719Z,21.60
2019-04-22T15:42:35.576Z,21.60
2019-04-22T15:45:02.574Z,21.60
2019-04-22T15:47:34.779Z,21.60
2019-04-22T15:50:06.119Z,21.60
2019-04-22T15:52:41.725Z,21.60
2019-04-22T15:55:08.933Z,21.70
2019-04-22T15:57:39.828Z,21.60
2019-04-22T16:00:21.150Z,21.60
2019-04-22T16:02:41.501Z,21.50
2019-04-22T16:05:30.410Z,21.60
2019-04-22T16:08:01.321Z,21.60
2019-04-22T16:10:30.926Z,21.70
2019-04-22T16:13:07.524Z,21.60
2019-04-22T16:15:31.425Z,21.60
2019-04-22T16:18:03.333Z,21.60
2019-04-22T16:20:32.289Z,21.60
2019-04-22T16:23:20.837Z,21.70
2019-04-22T16:25:57.044Z,21.70
2019-04-22T16:28:29.150Z,21.70
2019-04-22T16:30:59.659Z,21.70
2019-04-22T16:33:29.441Z,21.70
2019-04-22T16:35:58.962Z,21.70
2019-04-22T16:38:28.868Z,21.70
2019-04-22T16:40:58.936Z,21.70
2019-04-22T16:43:28.785Z,21.80
2019-04-22T16:45:58.475Z,21.80
2019-04-22T16:48:29.546Z,21.80
2019-04-22T16:51:00.188Z,21.70
2019-04-22T16:53:31.386Z,21.80
2019-04-22T16:56:00.852Z,21.70
2019-04-22T16:58:30.514Z,21.80
2019-04-22T17:01:00.672Z,21.80
2019-04-22T17:03:48.819Z,21.90
2019-04-22T17:06:21.461Z,21.90
2019-04-22T17:08:51.008Z,21.90
2019-04-22T17:11:20.403Z,21.90
2019-04-22T17:13:50.212Z,21.90
2019-04-22T17:16:20.225Z,21.80
2019-04-22T17:18:50.113Z,21.80
2019-04-22T17:21:19.823Z,21.70
2019-04-22T17:23:49.883Z,21.70
2019-04-22T17:26:20.735Z,21.90
2019-04-22T17:28:51.309Z,21.80
2019-04-22T17:31:22.819Z,21.70
2019-04-22T17:33:53.004Z,21.80
2019-04-22T17:36:24.231Z,21.70
2019-04-22T17:39:07.032Z,21.80
2019-04-22T17:41:41.838Z,21.70
2019-04-22T17:44:25.094Z,21.80
2019-04-22T17:46:56.332Z,21.80
2019-04-22T17:49:45.644Z,21.80
2019-04-22T17:52:21.573Z,21.70
2019-04-22T17:54:50.340Z,21.60
2019-04-22T17:57:22.491Z,21.70
2019-04-22T17:59:53.465Z,21.80
2019-04-22T18:02:22.567Z,21.80
2019-04-22T18:04:45.995Z,21.80
2019-04-22T18:10:27.511Z,21.90
2019-04-22T18:12:52.761Z,21.80
2019-04-22T18:15:29.403Z,21.80
2019-04-22T18:17:59.268Z,21.80
2019-04-22T18:20:17.744Z,21.80
2019-04-22T18:22:41.816Z,21.80
2019-04-22T18:25:15.299Z,21.70
2019-04-22T18:28:02.078Z,21.80
2019-04-22T18:30:21.915Z,21.70
2019-04-22T18:33:00.681Z,21.70
2019-04-22T18:35:30.877Z,21.80
2019-04-22T18:38:10.987Z,21.80
2019-04-22T18:40:37.342Z,21.80
2019-04-22T18:43:17.175Z,21.80
2019-04-22T18:48:05.269Z,21.80
2019-04-22T18:50:53.620Z,21.80
2019-04-22T18:53:38.785Z,21.90
2019-04-22T18:56:01.706Z,21.80
2019-04-22T18:58:31.301Z,21.80
2019-04-22T19:00:52.512Z,21.80
2019-04-22T19:03:26.144Z,21.80
2019-04-22T19:06:25.930Z,21.80
2019-04-22T19:08:43.045Z,21.80
2019-04-22T19:16:36.000Z,21.70
2019-04-22T19:21:35.525Z,21.70
2019-04-22T19:24:04.371Z,21.70
2019-04-22T19:29:08.047Z,21.60
2019-04-22T19:31:40.761Z,21.60
2019-04-22T19:34:09.351Z,21.60
2019-04-22T19:36:46.785Z,21.60
2019-04-22T19:39:13.127Z,21.60
2019-04-22T19:41:48.899Z,21.60
2019-04-22T19:44:20.138Z,21.60
2019-04-22T19:47:10.679Z,21.60
2019-04-22T19:49:24.603Z,21.60
2019-04-22T19:51:57.283Z,21.60
2019-04-22T19:54:17.435Z,21.60
2019-04-22T19:56:45.372Z,21.60
2019-04-22T19:59:20.860Z,21.50
2019-04-22T20:02:09.496Z,21.60
2019-04-22T20:04:52.934Z,21.50
2019-04-22T20:07:41.408Z,21.50
2019-04-22T20:10:18.964Z,21.50
2019-04-22T20:12:42.772Z,21.40
2019-04-22T20:15:18.482Z,21.50
2019-04-22T20:18:19.297Z,21.50
2019-04-22T20:20:27.476Z,21.40
2019-04-22T20:22:52.391Z,21.50
2019-04-22T20:25:16.748Z,21.50
2019-04-22T20:28:01.368Z,21.50
2019-04-22T20:30:43.257Z,21.40
2019-04-22T20:32:58.950Z,21.50
2019-04-22T20:35:38.700Z,21.40
2019-04-22T20:38:12.135Z,21.40
2019-04-22T20:40:39.519Z,21.40
2019-04-22T20:43:15.021Z,21.40
2019-04-22T20:45:39.620Z,21.40
2019-04-22T20:48:05.117Z,21.40
2019-04-22T20:50:48.193Z,21.40
2019-04-22T20:53:20.014Z,21.40
2019-04-22T20:55:48.300Z,21.40
2019-04-22T20:58:18.058Z,21.40
2019-04-22T21:00:40.279Z,21.30
2019-04-22T21:03:10.405Z,21.30
2019-04-22T21:05:44.465Z,21.30
2019-04-22T21:08:24.477Z,21.30
2019-04-22T21:10:45.396Z,21.20
2019-04-22T21:13:20.599Z,21.20
2019-04-22T21:16:15.256Z,21.20
2019-04-22T21:18:39.414Z,21.10
2019-04-22T21:21:20.260Z,21.10
2019-04-22T21:23:42.182Z,21.00
2019-04-22T21:26:21.367Z,21.00
2019-04-22T21:28:49.027Z,21.00
2019-04-22T21:31:23.491Z,20.90
2019-04-22T21:33:51.932Z,20.90
2019-04-22T21:36:41.583Z,20.80
2019-04-22T21:39:12.563Z,20.80
2019-04-22T21:41:43.216Z,20.80
2019-04-22T21:44:14.406Z,20.80
2019-04-22T21:46:47.877Z,20.80
2019-04-22T21:49:21.686Z,20.80
2019-04-22T21:51:54.009Z,20.80
2019-04-22T21:54:28.273Z,20.80
2019-04-22T21:57:08.977Z,20.70
2019-04-22T21:59:25.267Z,20.70
2019-04-22T22:02:04.424Z,20.60
2019-04-22T22:04:24.798Z,20.60
2019-04-22T22:06:53.073Z,20.60
2019-04-22T22:09:31.545Z,20.60
2019-04-22T22:11:59.316Z,20.60
2019-04-22T22:14:32.214Z,20.60
2019-04-22T22:16:58.791Z,20.60
2019-04-22T22:19:39.688Z,20.60
2019-04-22T22:22:26.691Z,20.70
2019-04-22T22:24:38.589Z,20.70
2019-04-22T22:27:12.733Z,20.70
2019-04-22T22:30:06.694Z,20.70
2019-04-22T22:32:16.517Z,20.70
2019-04-22T22:34:45.882Z,20.70
2019-04-22T22:37:06.467Z,20.70
2019-04-22T22:39:42.007Z,20.70
2019-04-22T22:41:57.665Z,20.80
2019-04-22T22:44:33.333Z,20.80
2019-04-22T22:47:16.299Z,20.80
2019-04-22T22:49:53.210Z,20.80
2019-04-22T22:54:54.146Z,20.70
2019-04-22T22:57:29.006Z,20.70
2019-04-22T22:59:55.159Z,20.80
2019-04-22T23:02:27.143Z,20.80
2019-04-22T23:04:59.506Z,20.80
2019-04-22T23:07:47.574Z,20.80
2019-04-22T23:10:01.982Z,20.80
2019-04-22T23:12:44.043Z,20.80
2019-04-22T23:15:02.759Z,20.80
2019-04-22T23:17:16.932Z,20.80
2019-04-22T23:19:48.587Z,20.80
2019-04-22T23:22:23.420Z,20.80
2019-04-22T23:25:07.750Z,20.70
2019-04-22T23:27:44.545Z,20.70
2019-04-22T23:30:09.485Z,20.70
2019-04-22T23:32:39.938Z,20.70
2019-04-22T23:35:32.238Z,20.70
2019-04-22T23:37:57.284Z,20.70
2019-04-22T23:43:09.170Z,20.60
2019-04-22T23:45:43.466Z,20.60
2019-04-22T23:48:03.400Z,20.60
2019-04-22T23:50:39.455Z,20.60
2019-04-22T23:53:45.083Z,20.60
2019-04-22T23:56:00.266Z,20.60
2019-04-22T23:58:50.584Z,20.60
